createdAt,value
2023-02-03T00:01:43.398Z,4.60
2023-02-03T00:04:01.363Z,5.00
2023-02-03T00:06:18.466Z,3.42
2023-02-03T00:08:35.779Z,5.40
2023-02-03T00:10:52.829Z,2.75
2023-02-03T00:13:10.347Z,4.30
2023-02-03T00:15:27.724Z,3.95
2023-02-03T00:17:45.469Z,3.22
2023-02-03T00:20:02.990Z,3.97
2023-02-03T00:22:19.956Z,4.72
2023-02-03T00:24:37.025Z,4.47
2023-02-03T00:26:54.054Z,3.20
2023-02-03T00:29:11.458Z,2.60
2023-02-03T00:31:29.873Z,3.25
2023-02-03T00:33:46.999Z,3.55
2023-02-03T00:36:05.118Z,3.90
2023-02-03T00:38:22.505Z,4.28
2023-02-03T00:40:40.482Z,2.97
2023-02-03T00:42:57.702Z,3.20
2023-02-03T00:45:14.726Z,3.63
2023-02-03T00:47:32.239Z,6.15
2023-02-03T00:49:50.326Z,3.38
2023-02-03T00:52:07.532Z,3.50
2023-02-03T00:54:25.983Z,2.85
2023-02-03T00:56:44.235Z,3.28
2023-02-03T00:59:01.630Z,3.13
2023-02-03T01:01:18.721Z,2.58
2023-02-03T01:03:35.931Z,2.60
2023-02-03T01:05:53.664Z,3.97
2023-02-03T01:08:10.814Z,3.08
2023-02-03T01:10:28.126Z,2.45
2023-02-03T01:12:45.741Z,3.15
2023-02-03T01:15:04.012Z,3.60
2023-02-03T01:17:21.357Z,2.70
2023-02-03T01:19:38.813Z,2.33
2023-02-03T01:21:55.895Z,3.28
2023-02-03T01:24:13.286Z,4.13
2023-02-03T01:26:30.962Z,2.33
2023-02-03T01:28:48.281Z,2.40
2023-02-03T01:31:05.469Z,2.88
2023-02-03T01:33:22.816Z,2.40
2023-02-03T01:35:40.157Z,2.83
2023-02-03T01:37:57.309Z,2.35
2023-02-03T01:40:14.679Z,1.70
2023-02-03T01:42:32.098Z,2.25
2023-02-03T01:44:51.406Z,2.45
2023-02-03T01:47:10.614Z,4.25
2023-02-03T01:49:27.819Z,2.42
2023-02-03T01:51:45.316Z,3.38
2023-02-03T01:54:05.875Z,2.20
2023-02-03T01:56:23.980Z,2.65
2023-02-03T01:58:42.171Z,4.30
2023-02-03T02:00:59.628Z,3.15
2023-02-03T02:03:17.014Z,4.50
2023-02-03T02:05:34.104Z,2.00
2023-02-03T02:07:51.258Z,2.58
2023-02-03T02:10:08.611Z,1.90
2023-02-03T02:12:25.927Z,2.30
2023-02-03T02:14:44.121Z,1.63
2023-02-03T02:17:01.218Z,2.45
2023-02-03T02:19:18.618Z,1.85
2023-02-03T02:21:36.068Z,1.70
2023-02-03T02:23:53.185Z,2.42
2023-02-03T02:26:10.267Z,1.98
2023-02-03T02:28:28.353Z,3.08
2023-02-03T02:30:45.526Z,3.25
2023-02-03T02:33:02.819Z,2.63
2023-02-03T02:35:20.143Z,3.22
2023-02-03T02:37:37.257Z,2.03
2023-02-03T02:39:55.508Z,3.80
2023-02-03T02:42:12.890Z,1.88
2023-02-03T02:44:29.869Z,1.73
2023-02-03T02:46:47.204Z,2.30
2023-02-03T02:49:04.482Z,1.83
2023-02-03T02:51:21.642Z,2.25
2023-02-03T02:53:38.990Z,3.83
2023-02-03T02:55:56.300Z,2.75
2023-02-03T02:58:14.000Z,2.97
2023-02-03T03:00:31.931Z,2.47
2023-02-03T03:02:48.991Z,3.45
2023-02-03T03:05:06.308Z,2.85
2023-02-03T03:07:23.509Z,3.90
2023-02-03T03:09:40.548Z,5.88
2023-02-03T03:11:57.810Z,2.92
2023-02-03T03:14:15.095Z,3.90
2023-02-03T03:16:32.103Z,3.22
2023-02-03T03:18:49.432Z,2.58
2023-02-03T03:21:06.788Z,3.08
2023-02-03T03:23:23.862Z,2.97
2023-02-03T03:25:40.956Z,3.17
2023-02-03T03:27:57.981Z,4.38
2023-02-03T03:30:15.043Z,4.47
2023-02-03T03:32:33.153Z,3.20
2023-02-03T03:34:50.186Z,2.53
2023-02-03T03:37:07.153Z,3.65
2023-02-03T03:39:24.382Z,3.50
2023-02-03T03:41:41.509Z,4.82
2023-02-03T03:43:58.657Z,4.15
2023-02-03T03:46:16.085Z,2.83
2023-02-03T03:48:33.447Z,5.13
2023-02-03T03:50:53.323Z,3.45
2023-02-03T03:53:10.391Z,4.88
2023-02-03T03:55:27.379Z,5.00
2023-02-03T03:57:44.347Z,6.88
2023-02-03T04:00:01.651Z,4.13
2023-02-03T04:02:18.988Z,5.00
2023-02-03T04:04:37.296Z,3.10
2023-02-03T04:06:54.322Z,3.95
2023-02-03T04:09:11.925Z,4.30
2023-02-03T04:11:30.000Z,3.55
2023-02-03T04:13:47.083Z,4.88
2023-02-03T04:16:04.823Z,3.28
2023-02-03T04:18:22.222Z,4.45
2023-02-03T04:20:39.670Z,4.95
2023-02-03T04:22:56.732Z,2.67
2023-02-03T04:25:14.030Z,6.57
2023-02-03T04:27:31.328Z,2.75
2023-02-03T04:29:49.337Z,4.75
2023-02-03T04:32:06.650Z,3.17
2023-02-03T04:34:23.757Z,2.80
2023-02-03T04:36:40.784Z,3.10
2023-02-03T04:38:58.076Z,2.83
2023-02-03T04:41:15.199Z,4.15
2023-02-03T04:43:32.514Z,3.53
2023-02-03T04:45:49.529Z,3.55
2023-02-03T04:48:06.861Z,2.88
2023-02-03T04:50:24.217Z,4.93
2023-02-03T04:52:41.650Z,3.63
2023-02-03T04:54:58.768Z,2.15
2023-02-03T04:57:15.861Z,3.83
2023-02-03T04:59:33.307Z,3.22
2023-02-03T05:01:50.270Z,3.75
2023-02-03T05:04:08.617Z,3.85
2023-02-03T05:06:25.866Z,2.70
2023-02-03T05:08:43.241Z,3.75
2023-02-03T05:11:02.235Z,2.80
2023-02-03T05:13:19.804Z,3.63
2023-02-03T05:15:37.810Z,3.08
2023-02-03T05:17:54.897Z,4.40
2023-02-03T05:20:12.009Z,2.85
2023-02-03T05:22:28.973Z,5.63
2023-02-03T05:24:46.989Z,4.53
2023-02-03T05:27:05.039Z,5.00
2023-02-03T05:29:22.443Z,4.93
2023-02-03T05:31:39.518Z,3.95
2023-02-03T05:33:56.529Z,3.75
2023-02-03T05:36:13.671Z,3.58
2023-02-03T05:38:30.651Z,3.75
2023-02-03T05:40:48.470Z,4.22
2023-02-03T05:43:05.726Z,4.28
2023-02-03T05:45:22.810Z,3.28
2023-02-03T05:47:40.192Z,3.95
2023-02-03T05:49:57.514Z,3.47
2023-02-03T05:52:14.448Z,4.20
2023-02-03T05:54:31.790Z,3.35
2023-02-03T05:56:48.831Z,3.38
2023-02-03T05:59:05.823Z,4.78
2023-02-03T06:01:22.702Z,5.55
2023-02-03T06:03:39.663Z,3.20
2023-02-03T06:05:57.028Z,5.50
2023-02-03T06:08:14.039Z,2.85
2023-02-03T06:10:31.034Z,3.60
2023-02-03T06:12:49.272Z,7.85
2023-02-03T06:15:06.343Z,6.72
2023-02-03T06:17:23.386Z,10.35
2023-02-03T06:19:41.631Z,10.73
2023-02-03T06:21:58.575Z,6.93
2023-02-03T06:24:16.596Z,5.45
2023-02-03T06:26:33.617Z,5.32
2023-02-03T06:28:50.612Z,5.65
2023-02-03T06:31:07.712Z,5.40
2023-02-03T06:33:25.131Z,4.75
2023-02-03T06:35:42.469Z,4.72
2023-02-03T06:37:59.675Z,5.97
2023-02-03T06:40:17.011Z,5.10
2023-02-03T06:42:33.885Z,5.80
2023-02-03T06:44:51.210Z,6.30
2023-02-03T06:47:08.253Z,3.70
2023-02-03T06:49:25.358Z,3.78
2023-02-03T06:51:43.396Z,5.15
2023-02-03T06:54:00.433Z,4.95
2023-02-03T06:56:17.400Z,5.10
2023-02-03T06:58:35.458Z,4.75
2023-02-03T07:00:52.401Z,6.22
2023-02-03T07:08:18.296Z,3.70
2023-02-03T07:10:36.531Z,3.83
2023-02-03T07:12:54.758Z,2.55
2023-02-03T07:15:11.766Z,12.43
2023-02-03T07:17:28.727Z,10.35
2023-02-03T07:19:46.222Z,5.22
2023-02-03T07:22:03.216Z,3.47
2023-02-03T07:24:20.265Z,4.65
2023-02-03T07:26:37.576Z,3.95
2023-02-03T07:28:54.641Z,3.17
2023-02-03T07:31:11.754Z,5.28
2023-02-03T07:33:29.104Z,5.60
2023-02-03T07:35:46.355Z,3.50
2023-02-03T07:38:03.313Z,1.83
2023-02-03T07:40:21.566Z,3.35
2023-02-03T07:42:38.757Z,4.40
2023-02-03T07:44:56.069Z,2.15
2023-02-03T07:47:13.107Z,2.03
2023-02-03T07:49:30.357Z,4.28
2023-02-03T07:51:47.574Z,6.68
2023-02-03T07:54:04.865Z,3.78
2023-02-03T07:56:22.117Z,2.95
2023-02-03T07:58:39.395Z,2.83
2023-02-03T08:00:56.612Z,3.85
2023-02-03T08:03:13.694Z,4.60
2023-02-03T08:05:30.691Z,3.33
2023-02-03T08:07:47.727Z,3.22
2023-02-03T08:10:04.840Z,5.35
2023-02-03T08:12:22.192Z,5.82
2023-02-03T08:14:39.459Z,10.65
2023-02-03T08:16:56.818Z,29.52
2023-02-03T08:19:14.144Z,9.98
2023-02-03T08:21:31.078Z,13.82
2023-02-03T08:23:48.165Z,13.82
2023-02-03T08:26:05.151Z,5.78
2023-02-03T08:28:23.120Z,4.38
2023-02-03T08:30:40.411Z,5.38
2023-02-03T08:32:57.448Z,4.25
2023-02-03T08:35:14.681Z,5.28
2023-02-03T08:37:31.911Z,4.03
2023-02-03T08:39:48.990Z,4.43
2023-02-03T08:42:07.009Z,3.17
2023-02-03T08:44:24.230Z,3.80
2023-02-03T08:46:41.294Z,7.10
2023-02-03T08:48:58.310Z,8.02
2023-02-03T08:51:15.335Z,5.82
2023-02-03T08:53:32.312Z,9.23
2023-02-03T08:55:49.275Z,6.75
2023-02-03T08:58:07.316Z,10.90
2023-02-03T09:00:24.434Z,7.25
2023-02-03T09:02:42.428Z,8.00
2023-02-03T09:04:59.527Z,4.18
2023-02-03T09:07:16.936Z,12.50
2023-02-03T09:09:34.426Z,4.75
2023-02-03T09:11:51.650Z,4.15
2023-02-03T09:14:08.623Z,6.88
2023-02-03T09:16:25.605Z,4.03
2023-02-03T09:18:43.650Z,5.63
2023-02-03T09:21:00.683Z,5.05
2023-02-03T09:23:18.073Z,5.68
2023-02-03T09:25:35.406Z,5.05
2023-02-03T09:27:52.512Z,4.43
2023-02-03T09:30:09.430Z,9.05
2023-02-03T09:32:26.479Z,5.50
2023-02-03T09:34:43.603Z,3.60
2023-02-03T09:37:00.585Z,3.58
2023-02-03T09:39:17.740Z,4.05
2023-02-03T09:41:35.004Z,4.05
2023-02-03T09:43:52.290Z,4.18
2023-02-03T09:46:09.315Z,6.05
2023-02-03T09:48:26.323Z,2.17
2023-02-03T09:50:43.214Z,3.70
2023-02-03T09:53:01.029Z,3.95
2023-02-03T09:55:18.316Z,3.97
2023-02-03T09:57:35.632Z,4.13
2023-02-03T09:59:52.651Z,3.15
2023-02-03T10:02:09.953Z,5.68
2023-02-03T10:04:27.243Z,4.45
2023-02-03T10:06:45.204Z,4.55
2023-02-03T10:09:02.280Z,11.38
2023-02-03T10:11:19.565Z,2.97
2023-02-03T10:13:38.165Z,2.63
2023-02-03T10:15:55.266Z,1.50
2023-02-03T10:18:12.295Z,3.30
2023-02-03T10:20:29.901Z,3.20
2023-02-03T10:22:47.281Z,2.10
2023-02-03T10:25:04.283Z,4.60
2023-02-03T10:27:21.203Z,4.65
2023-02-03T10:29:38.247Z,5.68
2023-02-03T10:31:57.518Z,2.65
2023-02-03T10:34:15.570Z,4.25
2023-02-03T10:36:32.528Z,5.50
2023-02-03T10:38:49.587Z,7.82
2023-02-03T10:41:06.704Z,4.85
2023-02-03T10:43:24.795Z,3.67
2023-02-03T10:45:42.016Z,5.63
2023-02-03T10:47:59.337Z,2.10
2023-02-03T10:50:16.399Z,3.83
2023-02-03T10:52:33.441Z,8.13
2023-02-03T10:54:50.503Z,27.35
2023-02-03T10:57:08.818Z,3.65
2023-02-03T10:59:25.829Z,7.40
2023-02-03T11:01:42.930Z,3.03
2023-02-03T11:04:00.184Z,3.35
2023-02-03T11:06:18.241Z,4.95
2023-02-03T11:08:35.149Z,7.82
2023-02-03T11:10:52.193Z,7.00
2023-02-03T11:13:09.028Z,2.25
2023-02-03T11:15:26.535Z,8.77
2023-02-03T11:17:44.125Z,18.45
2023-02-03T11:20:01.112Z,11.07
2023-02-03T11:22:18.352Z,5.07
2023-02-03T11:24:35.430Z,4.07
2023-02-03T11:26:52.506Z,4.43
2023-02-03T11:29:09.398Z,4.47
2023-02-03T11:31:26.518Z,7.25
2023-02-03T11:33:43.438Z,4.15
2023-02-03T11:36:00.507Z,2.63
2023-02-03T11:38:17.503Z,3.05
2023-02-03T11:40:34.541Z,3.55
2023-02-03T11:42:51.815Z,3.35
2023-02-03T11:45:08.921Z,4.10
2023-02-03T11:47:25.943Z,4.93
2023-02-03T11:49:43.979Z,2.80
2023-02-03T11:52:01.786Z,3.78
2023-02-03T11:54:18.689Z,8.02
2023-02-03T11:56:35.730Z,1.95
2023-02-03T11:58:52.959Z,1.92
2023-02-03T12:01:09.994Z,2.95
2023-02-03T12:03:26.893Z,4.65
2023-02-03T12:05:44.225Z,2.22
2023-02-03T12:08:01.291Z,3.78
2023-02-03T12:10:18.603Z,2.45
2023-02-03T12:12:35.676Z,2.53
2023-02-03T12:14:52.699Z,1.95
2023-02-03T12:17:09.968Z,1.77
2023-02-03T12:19:27.177Z,1.08
2023-02-03T12:21:44.433Z,1.00
2023-02-03T12:24:02.481Z,1.83
2023-02-03T12:26:19.546Z,1.95
2023-02-03T12:28:37.096Z,2.15
2023-02-03T12:30:54.515Z,1.98
2023-02-03T12:33:11.615Z,1.67
2023-02-03T12:35:30.057Z,1.02
2023-02-03T12:37:48.140Z,1.08
2023-02-03T12:40:05.020Z,1.35
2023-02-03T12:42:22.351Z,1.25
2023-02-03T12:44:39.591Z,1.50
2023-02-03T12:46:56.704Z,1.02
2023-02-03T12:49:13.974Z,3.15
2023-02-03T12:51:30.922Z,1.23
2023-02-03T12:53:48.913Z,2.15
2023-02-03T12:56:05.970Z,2.28
2023-02-03T12:58:22.929Z,0.73
2023-02-03T13:00:40.312Z,1.65
2023-02-03T13:02:58.598Z,1.75
2023-02-03T13:05:15.685Z,2.08
2023-02-03T13:07:33.723Z,2.88
2023-02-03T13:09:50.734Z,1.95
2023-02-03T13:12:08.912Z,4.00
2023-02-03T13:14:26.008Z,3.90
2023-02-03T13:16:43.976Z,3.10
2023-02-03T13:19:01.016Z,1.30
2023-02-03T13:21:19.260Z,3.53
2023-02-03T13:23:36.213Z,3.42
2023-02-03T13:25:54.196Z,2.08
2023-02-03T13:28:11.607Z,2.65
2023-02-03T13:30:28.872Z,2.67
2023-02-03T13:32:47.295Z,1.15
2023-02-03T13:35:04.320Z,2.00
2023-02-03T13:37:22.362Z,0.98
2023-02-03T13:39:39.422Z,1.27
2023-02-03T13:41:57.786Z,0.50
2023-02-03T13:44:15.067Z,0.60
2023-02-03T13:46:32.107Z,0.50
2023-02-03T13:48:50.806Z,0.50
2023-02-03T13:51:08.081Z,1.48
2023-02-03T13:53:25.536Z,0.40
2023-02-03T13:55:42.545Z,0.82
2023-02-03T13:57:59.466Z,0.95
2023-02-03T14:00:16.445Z,0.50
2023-02-03T14:02:33.447Z,1.60
2023-02-03T14:04:52.403Z,1.85
2023-02-03T14:07:10.235Z,1.15
2023-02-03T14:09:27.267Z,2.00
2023-02-03T14:11:44.294Z,1.35
2023-02-03T14:14:01.696Z,1.13
2023-02-03T14:16:18.880Z,1.35
2023-02-03T14:18:36.168Z,0.73
2023-02-03T14:20:53.412Z,1.30
2023-02-03T14:23:10.616Z,1.80
2023-02-03T14:25:28.111Z,0.70
2023-02-03T14:27:45.874Z,0.70
2023-02-03T14:30:02.903Z,0.82
2023-02-03T14:32:20.225Z,0.50
2023-02-03T14:34:38.154Z,1.70
2023-02-03T14:36:55.418Z,4.55
2023-02-03T14:39:13.758Z,5.05
2023-02-03T14:41:31.705Z,3.00
2023-02-03T14:43:48.786Z,1.48
2023-02-03T14:46:05.969Z,1.17
2023-02-03T14:48:23.212Z,1.40
2023-02-03T14:50:40.407Z,0.63
2023-02-03T14:52:57.331Z,0.90
2023-02-03T14:55:14.620Z,1.33
2023-02-03T14:57:31.599Z,1.13
2023-02-03T14:59:48.857Z,1.42
2023-02-03T15:02:06.814Z,1.00
2023-02-03T15:04:24.118Z,0.80
2023-02-03T15:06:41.354Z,0.60
2023-02-03T15:08:58.618Z,0.73
2023-02-03T15:11:15.614Z,0.52
2023-02-03T15:13:32.868Z,2.60
2023-02-03T15:15:49.930Z,1.15
2023-02-03T15:18:07.264Z,0.82
2023-02-03T15:20:24.164Z,0.82
2023-02-03T15:22:41.259Z,2.00
2023-02-03T15:24:58.550Z,1.13
2023-02-03T15:27:15.631Z,1.50
2023-02-03T15:29:32.913Z,4.60
2023-02-03T15:31:50.345Z,7.70
2023-02-03T15:34:07.475Z,13.68
2023-02-03T15:36:24.771Z,44.53
2023-02-03T15:38:42.061Z,21.73
2023-02-03T15:41:00.386Z,5.72
2023-02-03T15:43:17.533Z,1.60
2023-02-03T15:45:34.699Z,2.53
2023-02-03T15:47:51.843Z,1.80
2023-02-03T15:50:09.269Z,1.50
2023-02-03T15:52:27.230Z,1.58
2023-02-03T15:54:44.559Z,1.83
2023-02-03T15:57:02.793Z,1.10
2023-02-03T15:59:20.387Z,1.23
2023-02-03T16:01:37.433Z,1.10
2023-02-03T16:03:54.390Z,0.63
2023-02-03T16:06:11.437Z,1.00
2023-02-03T16:08:28.861Z,0.70
2023-02-03T16:10:45.913Z,0.77
2023-02-03T16:13:02.964Z,0.70
2023-02-03T16:15:21.048Z,1.58
2023-02-03T16:17:38.348Z,1.20
2023-02-03T16:19:55.296Z,1.13
2023-02-03T16:22:12.630Z,1.35
2023-02-03T16:24:30.869Z,1.20
2023-02-03T16:26:47.873Z,2.17
2023-02-03T16:29:04.849Z,2.60
2023-02-03T16:31:22.337Z,1.38
2023-02-03T16:33:40.329Z,1.20
2023-02-03T16:35:57.684Z,2.60
2023-02-03T16:38:15.979Z,1.30
2023-02-03T16:40:33.340Z,2.78
2023-02-03T16:42:51.231Z,3.17
2023-02-03T16:45:08.385Z,1.25
2023-02-03T16:47:26.401Z,1.40
2023-02-03T16:49:43.429Z,2.65
2023-02-03T16:52:00.740Z,18.90
2023-02-03T16:54:17.720Z,11.15
2023-02-03T16:56:35.011Z,2.90
2023-02-03T16:58:52.371Z,2.53
2023-02-03T17:01:09.614Z,1.73
2023-02-03T17:03:26.699Z,1.35
2023-02-03T17:05:43.621Z,1.33
2023-02-03T17:08:00.694Z,1.77
2023-02-03T17:10:17.712Z,2.75
2023-02-03T17:12:35.866Z,1.88
2023-02-03T17:14:52.966Z,1.48
2023-02-03T17:17:10.240Z,3.10
2023-02-03T17:19:27.533Z,1.90
2023-02-03T17:21:44.919Z,1.67
2023-02-03T17:24:02.281Z,2.67
2023-02-03T17:26:20.637Z,3.40
2023-02-03T17:28:37.883Z,2.22
2023-02-03T17:30:55.370Z,2.45
2023-02-03T17:33:12.742Z,4.15
2023-02-03T17:35:30.117Z,2.95
2023-02-03T17:37:48.637Z,4.05
2023-02-03T17:55:20.027Z,2.45
2023-02-03T17:57:37.340Z,3.22
2023-02-03T17:59:54.652Z,5.95
2023-02-03T18:02:11.649Z,3.28
2023-02-03T18:04:29.696Z,3.65
2023-02-03T18:06:46.581Z,3.38
2023-02-03T18:09:04.050Z,4.28
2023-02-03T18:11:21.955Z,3.33
2023-02-03T18:13:38.921Z,3.38
2023-02-03T18:15:56.037Z,4.97
2023-02-03T18:18:13.380Z,3.05
2023-02-03T18:20:30.678Z,4.28
2023-02-03T18:22:48.892Z,2.80
2023-02-03T18:25:06.232Z,3.03
2023-02-03T18:27:23.252Z,4.43
2023-02-03T18:29:40.209Z,5.05
2023-02-03T18:31:57.343Z,4.00
2023-02-03T18:34:14.309Z,4.15
2023-02-03T18:36:32.381Z,5.43
2023-02-03T18:38:49.770Z,4.68
2023-02-03T18:41:06.727Z,5.15
2023-02-03T18:43:26.969Z,5.35
2023-02-03T18:45:45.094Z,3.70
2023-02-03T18:48:02.236Z,4.38
2023-02-03T18:50:20.528Z,6.45
2023-02-03T18:52:37.811Z,7.10
2023-02-03T18:54:55.219Z,6.15
2023-02-03T18:57:12.600Z,6.55
2023-02-03T18:59:29.623Z,3.75
2023-02-03T19:01:47.770Z,6.63
2023-02-03T19:04:04.980Z,4.35
2023-02-03T19:06:22.312Z,6.55
2023-02-03T19:08:39.240Z,7.70
2023-02-03T19:10:56.274Z,6.15
2023-02-03T19:13:13.370Z,5.70
2023-02-03T19:15:30.333Z,6.03
2023-02-03T19:17:48.269Z,7.88
2023-02-03T19:20:05.329Z,6.28
2023-02-03T19:22:22.676Z,8.43
2023-02-03T19:24:39.542Z,9.57
2023-02-03T19:26:57.056Z,8.52
2023-02-03T19:29:15.320Z,9.07
2023-02-03T19:31:32.526Z,7.80
2023-02-03T19:33:49.862Z,8.73
2023-02-03T19:36:06.903Z,6.13
2023-02-03T19:38:23.943Z,7.38
2023-02-03T19:40:41.334Z,8.02
2023-02-03T19:42:58.202Z,7.07
2023-02-03T19:45:15.256Z,9.80
2023-02-03T19:47:32.532Z,7.20
2023-02-03T19:49:49.644Z,6.78
2023-02-03T19:52:06.757Z,7.45
2023-02-03T19:54:24.028Z,7.60
2023-02-03T19:56:41.043Z,6.75
2023-02-03T19:58:58.039Z,7.30
2023-02-03T20:01:15.020Z,6.50
2023-02-03T20:03:32.360Z,7.15
2023-02-03T20:05:50.399Z,7.10
2023-02-03T20:08:07.491Z,10.05
2023-02-03T20:10:25.216Z,7.43
2023-02-03T20:12:42.186Z,8.05
2023-02-03T20:14:59.194Z,5.97
2023-02-03T20:17:16.622Z,10.88
2023-02-03T20:19:34.603Z,8.05
2023-02-03T20:21:51.560Z,8.23
2023-02-03T20:24:08.581Z,7.15
2023-02-03T20:26:25.559Z,8.52
2023-02-03T20:28:43.520Z,7.85
2023-02-03T20:31:00.908Z,9.88
2023-02-03T20:33:19.079Z,11.32
2023-02-03T20:35:36.125Z,9.32
2023-02-03T20:37:53.516Z,9.40
2023-02-03T20:40:10.600Z,6.20
2023-02-03T20:42:27.805Z,9.88
2023-02-03T20:44:45.004Z,5.85
2023-02-03T20:47:04.334Z,8.75
2023-02-03T20:49:21.318Z,8.23
2023-02-03T20:51:38.260Z,6.88
2023-02-03T20:53:55.588Z,8.55
2023-02-03T20:56:13.714Z,5.90
2023-02-03T20:58:30.679Z,7.88
2023-02-03T21:00:47.957Z,10.90
2023-02-03T21:03:05.058Z,10.68
2023-02-03T21:05:22.127Z,8.93
2023-02-03T21:07:39.122Z,9.88
2023-02-03T21:09:56.019Z,11.35
2023-02-03T21:12:13.304Z,8.88
2023-02-03T21:14:30.513Z,9.23
2023-02-03T21:16:47.499Z,8.40
2023-02-03T21:19:04.602Z,9.90
2023-02-03T21:21:21.664Z,7.70
2023-02-03T21:23:38.664Z,8.13
2023-02-03T21:25:55.760Z,9.63
2023-02-03T21:28:13.629Z,8.85
2023-02-03T21:30:31.058Z,8.25
2023-02-03T21:32:50.545Z,9.23
2023-02-03T21:35:07.597Z,7.47
2023-02-03T21:37:25.893Z,8.02
2023-02-03T21:39:43.492Z,9.43
2023-02-03T21:42:00.405Z,10.20
2023-02-03T21:44:18.425Z,8.65
2023-02-03T21:46:35.753Z,9.38
2023-02-03T21:48:52.709Z,8.02
2023-02-03T21:51:10.027Z,8.25
2023-02-03T21:53:28.090Z,8.43
2023-02-03T21:55:45.411Z,5.75
2023-02-03T21:58:02.517Z,5.63
2023-02-03T22:00:19.562Z,6.38
2023-02-03T22:02:37.632Z,6.03
2023-02-03T22:04:54.906Z,5.43
2023-02-03T22:07:12.301Z,5.68
2023-02-03T22:09:29.606Z,5.00
2023-02-03T22:11:46.623Z,5.00
2023-02-03T22:14:03.560Z,5.03
2023-02-03T22:16:20.958Z,4.70
2023-02-03T22:18:38.027Z,4.72
2023-02-03T22:20:56.228Z,5.78
2023-02-03T22:23:13.331Z,5.03
2023-02-03T22:25:30.649Z,5.38
2023-02-03T22:27:47.740Z,4.95
2023-02-03T22:30:05.041Z,4.43
2023-02-03T22:32:22.294Z,2.80
2023-02-03T22:34:39.299Z,3.75
2023-02-03T22:36:57.133Z,3.75
2023-02-03T22:39:14.356Z,3.50
2023-02-03T22:41:31.297Z,4.07
2023-02-03T22:43:48.675Z,3.55
2023-02-03T22:46:05.801Z,4.90
2023-02-03T22:48:24.384Z,8.07
2023-02-03T22:50:41.679Z,5.10
2023-02-03T22:52:58.963Z,5.15
2023-02-03T22:55:16.957Z,5.55
2023-02-03T22:57:33.966Z,4.00
2023-02-03T22:59:50.861Z,4.85
2023-02-03T23:02:08.196Z,5.30
2023-02-03T23:04:25.558Z,4.47
2023-02-03T23:06:43.590Z,5.00
2023-02-03T23:09:00.606Z,4.32
2023-02-03T23:11:17.543Z,3.83
2023-02-03T23:13:34.476Z,4.28
2023-02-03T23:15:52.694Z,5.30
2023-02-03T23:18:09.785Z,4.50
2023-02-03T23:20:27.897Z,4.40
2023-02-03T23:22:45.097Z,3.25
2023-02-03T23:25:02.129Z,4.32
2023-02-03T23:27:19.145Z,4.72
2023-02-03T23:29:37.661Z,4.22
2023-02-03T23:31:54.728Z,4.72
2023-02-03T23:34:12.692Z,4.28
2023-02-03T23:36:30.953Z,5.88
2023-02-03T23:38:48.262Z,6.30
2023-02-03T23:41:05.146Z,5.47
2023-02-03T23:43:22.177Z,6.32
2023-02-03T23:45:39.212Z,3.75
2023-02-03T23:47:56.148Z,5.32
2023-02-03T23:50:14.133Z,2.83
2023-02-03T23:52:31.111Z,3.30
2023-02-03T23:54:49.412Z,2.22
2023-02-03T23:57:06.390Z,2.50
2023-02-03T23:59:24.396Z,2.92
